Time;durP1;ratioP1;P1;durP2;ratioP2;P2;SDS_P1;SDS_P2;PMS_P1;PMS_P2;Temp;Humidity;BMP_temperature;BMP_pressure;BME280_temperature;BME280_humidity;BME280_pressure;Samples;Min_cycle;Max_cycle;Signal;HPM_P1;HPM_P2
2021/01/30 00:00:17;;;;;;;12.63;6.10;;;1.90;81.70;;;;;;4974437;28;20050;-63
2021/01/30 00:02:42;;;;;;;13.15;7.05;;;1.90;81.60;;;;;;4973962;28;21011;-63
2021/01/30 00:05:09;;;;;;;12.05;6.50;;;1.90;81.60;;;;;;4975359;28;20030;-63
2021/01/30 00:07:34;;;;;;;14.20;6.35;;;1.90;81.80;;;;;;4978568;28;20429;-63
2021/01/30 00:10:00;;;;;;;9.90;5.57;;;1.90;81.30;;;;;;4979342;28;20117;-63
2021/01/30 00:12:26;;;;;;;14.27;7.15;;;1.90;81.60;;;;;;4979033;28;20041;-63
2021/01/30 00:14:53;;;;;;;14.00;6.03;;;1.90;81.90;;;;;;4979036;28;20037;-63
2021/01/30 00:17:20;;;;;;;18.15;7.68;;;1.90;81.80;;;;;;4979486;28;20059;-63
2021/01/30 00:19:46;;;;;;;22.48;8.25;;;1.90;81.80;;;;;;4978571;28;20030;-63
2021/01/30 00:22:15;;;;;;;13.48;6.55;;;1.90;81.40;;;;;;4978699;28;20026;-63
2021/01/30 00:24:44;;;;;;;13.95;6.63;;;1.90;81.70;;;;;;4978357;28;20110;-63
2021/01/30 00:27:13;;;;;;;13.52;6.28;;;1.90;81.90;;;;;;4978986;28;20034;-63
2021/01/30 00:29:39;;;;;;;14.48;6.90;;;1.90;82.20;;;;;;4978183;28;20039;-63
2021/01/30 00:32:07;;;;;;;12.23;6.28;;;2.00;82.10;;;;;;4979641;28;20792;-63
2021/01/30 00:34:34;;;;;;;10.55;6.40;;;2.00;81.30;;;;;;4978550;28;20113;-63
2021/01/30 00:37:12;;;;;;;16.70;8.02;;;2.00;81.50;;;;;;4976402;28;20497;-63
2021/01/30 00:39:39;;;;;;;15.93;6.63;;;2.00;81.60;;;;;;4978591;28;20116;-63
2021/01/30 00:42:06;;;;;;;15.05;7.60;;;2.10;81.50;;;;;;4978785;28;20040;-63
2021/01/30 00:44:32;;;;;;;15.50;7.68;;;2.00;81.70;;;;;;4976907;28;20034;-63
2021/01/30 00:46:58;;;;;;;13.45;7.10;;;2.10;81.50;;;;;;4978677;28;20088;-63
2021/01/30 00:49:25;;;;;;;14.73;7.25;;;2.10;81.40;;;;;;4972701;28;20096;-63
2021/01/30 00:51:52;;;;;;;17.10;7.25;;;2.10;81.70;;;;;;4960877;28;20528;-63
2021/01/30 00:54:18;;;;;;;15.07;7.03;;;2.00;81.80;;;;;;4978665;28;20054;-63
2021/01/30 00:56:49;;;;;;;14.45;7.95;;;2.00;81.30;;;;;;4960749;28;20117;-63
2021/01/30 00:59:15;;;;;;;14.70;7.38;;;2.00;81.30;;;;;;4976937;28;20053;-63
2021/01/30 01:01:41;;;;;;;15.32;8.13;;;2.00;81.10;;;;;;4976881;28;20256;-63
2021/01/30 01:04:13;;;;;;;15.13;7.95;;;1.90;81.20;;;;;;4977200;28;20451;-63
2021/01/30 01:06:39;;;;;;;15.10;7.35;;;1.90;80.90;;;;;;4978166;28;20046;-63
2021/01/30 01:09:08;;;;;;;15.40;7.25;;;1.90;81.40;;;;;;4977993;28;20038;-63
2021/01/30 01:11:36;;;;;;;13.43;6.72;;;1.90;81.40;;;;;;4978299;28;20042;-63
2021/01/30 01:14:02;;;;;;;13.13;7.32;;;2.00;81.50;;;;;;4977351;28;20030;-63
2021/01/30 01:16:28;;;;;;;10.32;6.32;;;2.00;81.30;;;;;;4978122;28;20050;-63
2021/01/30 01:18:54;;;;;;;18.10;7.10;;;2.00;81.30;;;;;;4976487;28;20114;-63
2021/01/30 01:21:20;;;;;;;14.45;7.40;;;2.00;81.10;;;;;;4977853;28;21079;-63
2021/01/30 01:23:46;;;;;;;16.23;7.30;;;2.00;81.00;;;;;;4977773;28;20399;-63
2021/01/30 01:26:14;;;;;;;15.43;7.03;;;1.90;80.90;;;;;;4977316;28;20034;-63
2021/01/30 01:28:40;;;;;;;12.07;6.68;;;1.90;80.90;;;;;;4977079;28;20458;-64
2021/01/30 01:31:06;;;;;;;14.95;6.60;;;1.90;81.20;;;;;;4977139;28;20106;-63
2021/01/30 01:33:31;;;;;;;13.38;6.97;;;1.90;81.10;;;;;;4977986;28;20034;-63
2021/01/30 01:35:58;;;;;;;12.10;6.45;;;2.00;81.40;;;;;;4976120;28;20041;-63
2021/01/30 01:38:24;;;;;;;12.55;6.72;;;2.00;80.90;;;;;;4976003;28;20041;-62
2021/01/30 01:40:50;;;;;;;13.35;6.03;;;2.00;80.10;;;;;;4959891;28;20027;-63
2021/01/30 01:43:20;;;;;;;9.75;5.50;;;1.90;79.80;;;;;;4976993;28;20030;-63
2021/01/30 01:46:23;;;;;;;12.60;6.50;;;1.90;79.80;;;;;;4977564;28;20043;-63
2021/01/30 01:49:11;;;;;;;12.32;5.47;;;1.90;80.50;;;;;;4977584;28;20049;-63
2021/01/30 01:51:42;;;;;;;18.25;6.57;;;1.90;80.70;;;;;;4976539;28;20031;-62
2021/01/30 01:54:22;;;;;;;12.98;6.28;;;1.90;80.80;;;;;;4977213;28;20041;-63
2021/01/30 01:56:55;;;;;;;11.73;6.05;;;1.90;80.60;;;;;;4975826;28;20141;-63
2021/01/30 01:59:23;;;;;;;11.18;5.93;;;1.90;80.40;;;;;;4977091;28;20058;-63
2021/01/30 02:01:50;;;;;;;11.73;5.70;;;1.90;80.40;;;;;;4977197;28;20505;-63
2021/01/30 02:04:20;;;;;;;8.48;5.10;;;1.90;80.80;;;;;;4977244;28;20042;-62
2021/01/30 02:06:47;;;;;;;10.25;5.40;;;1.90;80.70;;;;;;4976930;28;20759;-63
2021/01/30 02:09:20;;;;;;;8.93;4.85;;;1.90;80.80;;;;;;4975238;28;20073;-63
2021/01/30 02:12:03;;;;;;;9.50;4.75;;;1.90;80.50;;;;;;4977341;28;20897;-63
2021/01/30 02:14:31;;;;;;;9.25;4.22;;;1.90;80.60;;;;;;4976282;28;20394;-63
2021/01/30 02:17:19;;;;;;;8.60;4.22;;;1.80;80.30;;;;;;4975672;28;20023;-63
2021/01/30 02:20:21;;;;;;;10.70;4.45;;;1.80;80.00;;;;;;4976867;28;20080;-63
2021/01/30 02:23:08;;;;;;;7.10;4.15;;;1.80;80.00;;;;;;4976866;28;20059;-63
2021/01/30 02:25:56;;;;;;;9.25;4.63;;;1.80;80.90;;;;;;4976741;28;20759;-63
2021/01/30 02:28:42;;;;;;;10.05;4.43;;;1.80;80.00;;;;;;4976347;28;20264;-63
2021/01/30 02:31:45;;;;;;;8.45;4.30;;;1.80;79.90;;;;;;4977375;28;20680;-63
2021/01/30 02:34:16;;;;;;;8.40;4.38;;;1.80;80.10;;;;;;4977394;28;20042;-63
2021/01/30 02:36:59;;;;;;;10.82;4.88;;;1.70;80.10;;;;;;4975192;28;20034;-63
2021/01/30 02:39:30;;;;;;;8.65;4.35;;;1.80;79.60;;;;;;4977221;28;20093;-63
2021/01/30 02:42:07;;;;;;;7.30;4.05;;;1.70;79.70;;;;;;4976741;28;20034;-64
2021/01/30 02:44:42;;;;;;;9.32;4.75;;;1.80;79.50;;;;;;4977049;28;20442;-63
2021/01/30 02:47:12;;;;;;;7.88;4.47;;;1.70;79.60;;;;;;4959253;28;20042;-63
2021/01/30 02:49:43;;;;;;;9.65;4.57;;;1.70;79.50;;;;;;4977012;28;20117;-63
2021/01/30 02:52:25;;;;;;;8.20;4.57;;;1.70;79.60;;;;;;4976160;28;20743;-64
2021/01/30 02:54:55;;;;;;;11.50;4.82;;;1.70;79.30;;;;;;4977253;28;20061;-63
2021/01/30 02:57:24;;;;;;;8.75;4.97;;;1.70;79.50;;;;;;4975201;28;20044;-63
2021/01/30 02:59:52;;;;;;;7.45;4.13;;;1.70;80.20;;;;;;4977077;28;20509;-63
2021/01/30 03:02:23;;;;;;;10.13;4.85;;;1.70;79.70;;;;;;4977194;28;20042;-63
2021/01/30 03:04:52;;;;;;;6.70;4.13;;;1.70;79.80;;;;;;4974038;28;20041;-63
2021/01/30 03:07:32;;;;;;;8.80;4.88;;;1.70;79.80;;;;;;4976889;28;20530;-63
2021/01/30 03:10:27;;;;;;;9.43;5.32;;;1.70;79.70;;;;;;4976241;28;20034;-63
2021/01/30 03:13:11;;;;;;;10.10;4.47;;;1.70;79.80;;;;;;4976387;28;20117;-63
2021/01/30 03:15:59;;;;;;;12.88;5.35;;;1.70;79.40;;;;;;4976064;28;20042;-63
2021/01/30 03:18:36;;;;;;;9.50;5.07;;;1.80;79.80;;;;;;4977161;28;20034;-63
2021/01/30 03:21:13;;;;;;;6.93;4.80;;;1.80;80.00;;;;;;4974699;28;20162;-63
2021/01/30 03:23:38;;;;;;;11.18;5.25;;;1.80;80.10;;;;;;4976976;28;20037;-63
2021/01/30 03:26:10;;;;;;;9.93;5.35;;;1.80;80.00;;;;;;4976280;28;20035;-63
2021/01/30 03:28:36;;;;;;;7.45;4.70;;;1.70;79.70;;;;;;4976147;28;20030;-63
2021/01/30 03:31:02;;;;;;;11.55;5.07;;;1.80;80.10;;;;;;4976485;28;20044;-63
2021/01/30 03:33:28;;;;;;;7.90;4.47;;;1.80;80.10;;;;;;4976942;28;20042;-63
2021/01/30 03:35:54;;;;;;;7.72;4.75;;;1.80;80.20;;;;;;4974943;28;20026;-63
2021/01/30 03:38:20;;;;;;;8.50;4.47;;;1.80;80.30;;;;;;4976421;28;20152;-63
2021/01/30 03:40:46;;;;;;;8.25;5.32;;;1.80;80.10;;;;;;4976886;28;20048;-63
2021/01/30 03:43:12;;;;;;;7.40;4.72;;;1.80;79.90;;;;;;4980041;28;20045;-63
2021/01/30 03:45:38;;;;;;;9.57;4.68;;;1.80;79.70;;;;;;4979915;28;20117;-63
2021/01/30 03:48:04;;;;;;;7.90;4.75;;;1.80;79.90;;;;;;5009062;28;20488;-63
2021/01/30 03:50:30;;;;;;;8.73;4.10;;;1.80;79.80;;;;;;4979578;28;20038;-63
2021/01/30 03:52:56;;;;;;;7.00;4.13;;;1.80;79.60;;;;;;4979925;28;20030;-63
2021/01/30 03:55:22;;;;;;;8.65;4.85;;;1.80;80.10;;;;;;4979803;28;20983;-63
2021/01/30 03:57:49;;;;;;;10.75;4.70;;;1.80;80.20;;;;;;4962040;28;20039;-63
2021/01/30 04:00:18;;;;;;;8.18;4.50;;;1.80;80.40;;;;;;4978552;28;20120;-63
2021/01/30 04:02:44;;;;;;;7.47;4.35;;;1.80;80.60;;;;;;4979826;28;20034;-63
2021/01/30 04:05:12;;;;;;;6.88;4.05;;;1.80;80.40;;;;;;4978436;28;20030;-63
2021/01/30 04:07:38;;;;;;;8.57;4.50;;;1.80;80.20;;;;;;4980058;28;20038;-63
2021/01/30 04:10:06;;;;;;;8.40;4.18;;;1.80;80.00;;;;;;4979228;28;20677;-63
2021/01/30 04:12:33;;;;;;;8.77;5.03;;;1.80;79.90;;;;;;4979225;28;20082;-63
2021/01/30 04:15:00;;;;;;;8.02;4.53;;;1.80;80.20;;;;;;4978646;28;20034;-63
2021/01/30 04:17:26;;;;;;;10.23;5.68;;;1.80;79.90;;;;;;4979321;28;20465;-63
2021/01/30 04:19:52;;;;;;;7.45;4.40;;;1.80;79.80;;;;;;4978134;28;20031;-63
2021/01/30 04:22:17;;;;;;;9.90;5.30;;;1.80;79.70;;;;;;4979826;28;20214;-63
2021/01/30 04:24:44;;;;;;;9.57;4.78;;;1.80;79.80;;;;;;4979171;28;20057;-63
2021/01/30 04:27:14;;;;;;;9.52;5.30;;;1.80;80.10;;;;;;4978552;28;20518;-63
2021/01/30 04:29:42;;;;;;;10.18;6.15;;;1.80;80.20;;;;;;4979108;28;20498;-63
2021/01/30 04:32:09;;;;;;;10.15;5.47;;;1.90;80.00;;;;;;4978861;28;20565;-63
2021/01/30 04:34:35;;;;;;;10.43;5.80;;;1.90;79.90;;;;;;4978635;28;20040;-63
2021/01/30 04:37:01;;;;;;;10.98;6.22;;;1.80;79.90;;;;;;4978583;28;20038;-63
2021/01/30 04:39:27;;;;;;;9.75;6.13;;;1.90;80.40;;;;;;4979135;28;20045;-63
2021/01/30 04:42:03;;;;;;;8.93;5.65;;;1.90;80.20;;;;;;4978108;28;20050;-63
2021/01/30 04:44:53;;;;;;;9.82;5.70;;;1.90;80.00;;;;;;4977467;28;20046;-63
2021/01/30 04:47:24;;;;;;;7.93;5.03;;;1.90;80.30;;;;;;4978631;28;20121;-63
2021/01/30 04:50:04;;;;;;;10.98;5.90;;;1.90;80.00;;;;;;4978509;28;20125;-63
2021/01/30 04:53:02;;;;;;;9.23;5.10;;;1.90;80.30;;;;;;4978835;28;20049;-63
2021/01/30 04:55:27;;;;;;;12.18;4.97;;;1.90;80.60;;;;;;4957439;28;20732;-63
2021/01/30 04:58:13;;;;;;;10.18;5.22;;;1.90;80.40;;;;;;4977225;28;20031;-63
2021/01/30 05:00:49;;;;;;;12.50;6.30;;;1.90;80.70;;;;;;4979327;28;20050;-63
2021/01/30 05:03:33;;;;;;;9.52;5.50;;;1.90;80.80;;;;;;4977723;28;20053;-63
2021/01/30 05:06:08;;;;;;;8.65;5.00;;;1.90;80.80;;;;;;4975649;28;20030;-63
2021/01/30 05:08:41;;;;;;;10.45;6.25;;;1.90;81.50;;;;;;4978451;28;20399;-63
2021/01/30 05:11:14;;;;;;;11.68;6.65;;;1.90;80.70;;;;;;4977719;28;20121;-63
2021/01/30 05:13:52;;;;;;;11.63;6.53;;;1.90;80.40;;;;;;4978260;28;20042;-63
2021/01/30 05:16:23;;;;;;;12.43;6.18;;;1.90;80.50;;;;;;4975982;28;20066;-63
2021/01/30 05:18:57;;;;;;;11.00;6.07;;;1.90;80.70;;;;;;4977849;28;20076;-63
2021/01/30 05:21:35;;;;;;;11.35;6.03;;;1.90;80.60;;;;;;4977993;28;20042;-63
2021/01/30 05:24:00;;;;;;;11.25;6.07;;;1.90;80.70;;;;;;4978099;28;20034;-63
2021/01/30 05:26:46;;;;;;;9.75;6.03;;;1.90;80.80;;;;;;4977129;28;20081;-61
2021/01/30 05:29:30;;;;;;;9.77;5.72;;;1.90;80.20;;;;;;4978325;28;20030;-63
2021/01/30 05:32:05;;;;;;;12.98;6.63;;;1.90;80.40;;;;;;4978003;28;20039;-63
2021/01/30 05:34:47;;;;;;;17.00;7.28;;;1.90;80.50;;;;;;4977871;28;20930;-63
2021/01/30 05:37:19;;;;;;;10.07;5.93;;;1.90;80.60;;;;;;4977761;28;20050;-63
2021/01/30 05:40:11;;;;;;;15.05;6.32;;;1.90;80.30;;;;;;4978007;28;20045;-63
2021/01/30 05:42:43;;;;;;;11.80;6.18;;;1.90;80.10;;;;;;4977685;28;20042;-63
2021/01/30 05:45:40;;;;;;;14.25;7.75;;;1.90;80.10;;;;;;4977248;28;20042;-63
2021/01/30 05:48:11;;;;;;;13.82;7.07;;;1.90;80.50;;;;;;4977534;28;20077;-63
2021/01/30 05:50:51;;;;;;;12.55;6.85;;;1.90;80.50;;;;;;4977807;28;20038;-63
2021/01/30 05:53:22;;;;;;;12.07;6.95;;;1.90;80.50;;;;;;4977514;28;20035;-63
2021/01/30 05:55:48;;;;;;;12.82;7.18;;;1.90;80.70;;;;;;4976157;28;20513;-63
2021/01/30 05:58:17;;;;;;;13.90;6.97;;;1.90;80.80;;;;;;4977572;28;20049;-63
2021/01/30 06:00:43;;;;;;;17.35;6.93;;;1.90;80.50;;;;;;4977212;28;20045;-63
2021/01/30 06:03:17;;;;;;;14.38;7.20;;;1.90;80.30;;;;;;4976848;28;20038;-63
2021/01/30 06:05:50;;;;;;;14.75;7.60;;;1.90;80.40;;;;;;4976705;28;20077;-63
2021/01/30 06:08:28;;;;;;;14.57;7.22;;;1.90;80.20;;;;;;4977302;28;20034;-62
2021/01/30 06:11:15;;;;;;;13.65;7.22;;;1.90;80.00;;;;;;4976873;28;20085;-62
2021/01/30 06:14:02;;;;;;;17.35;8.10;;;1.80;80.20;;;;;;4977284;28;20042;-62
2021/01/30 06:16:43;;;;;;;17.40;7.72;;;1.80;80.30;;;;;;4972618;28;20100;-63
2021/01/30 06:19:21;;;;;;;16.70;7.63;;;1.80;80.20;;;;;;4974266;28;20038;-64
2021/01/30 06:21:49;;;;;;;13.07;6.93;;;1.80;80.10;;;;;;4977001;28;20038;-63
2021/01/30 06:24:27;;;;;;;14.57;6.85;;;1.80;80.10;;;;;;4977128;28;20286;-63
2021/01/30 06:26:54;;;;;;;14.70;6.93;;;1.80;80.00;;;;;;4976192;28;20078;-66
2021/01/30 06:29:34;;;;;;;16.88;8.00;;;1.80;80.40;;;;;;4976835;28;20046;-63
2021/01/30 06:32:22;;;;;;;21.45;8.50;;;1.80;80.20;;;;;;4974143;28;20132;-63
2021/01/30 06:34:53;;;;;;;15.23;7.43;;;1.80;80.20;;;;;;4977336;28;20034;-63
2021/01/30 06:37:43;;;;;;;13.45;7.75;;;1.80;80.30;;;;;;4971695;28;20046;-63
2021/01/30 06:40:31;;;;;;;17.33;7.13;;;1.80;80.20;;;;;;4976074;28;20108;-63
2021/01/30 06:43:06;;;;;;;13.95;7.28;;;1.80;80.40;;;;;;4977032;28;20038;-64
2021/01/30 06:45:36;;;;;;;16.08;8.25;;;1.80;80.20;;;;;;4976787;28;20112;-63
2021/01/30 06:48:08;;;;;;;19.23;8.02;;;1.80;80.20;;;;;;4976940;28;20045;-63
2021/01/30 06:50:38;;;;;;;13.25;7.10;;;1.80;80.30;;;;;;4977017;28;20050;-64
2021/01/30 06:53:18;;;;;;;17.75;8.02;;;1.80;80.50;;;;;;4977508;28;20088;-64
2021/01/30 06:55:44;;;;;;;14.80;7.00;;;1.80;80.60;;;;;;4975810;28;20061;-63
2021/01/30 06:58:26;;;;;;;15.75;8.13;;;1.80;80.60;;;;;;4976732;28;20022;-64
2021/01/30 07:01:10;;;;;;;18.55;7.97;;;1.90;80.70;;;;;;4977032;28;20038;-63
2021/01/30 07:03:52;;;;;;;19.33;8.65;;;1.90;80.80;;;;;;4977066;28;20042;-63
2021/01/30 07:06:21;;;;;;;15.38;8.32;;;1.90;80.70;;;;;;4971416;28;20042;-63
2021/01/30 07:08:58;;;;;;;15.48;7.30;;;1.90;80.60;;;;;;4976875;28;20042;-63
2021/01/30 07:11:39;;;;;;;14.90;8.35;;;1.90;80.90;;;;;;4971838;28;20134;-64
2021/01/30 07:14:28;;;;;;;16.15;7.85;;;1.90;81.10;;;;;;4976956;28;20121;-63
2021/01/30 07:17:17;;;;;;;22.27;10.23;;;1.90;81.40;;;;;;4978043;28;20136;-63
2021/01/30 07:19:58;;;;;;;18.00;9.23;;;2.00;81.90;;;;;;4980915;28;20046;-63
2021/01/30 07:22:42;;;;;;;17.42;8.27;;;2.00;81.80;;;;;;4976037;28;20037;-63
2021/01/30 07:25:20;;;;;;;18.92;8.77;;;2.10;81.80;;;;;;4978875;28;20041;-63
2021/01/30 07:27:57;;;;;;;13.77;6.82;;;2.10;81.50;;;;;;4980376;28;20046;-63
2021/01/30 07:30:37;;;;;;;13.48;7.47;;;2.20;81.50;;;;;;4980980;28;20134;-64
2021/01/30 07:33:12;;;;;;;15.80;8.35;;;2.30;81.20;;;;;;4980026;28;20034;-63
2021/01/30 07:35:59;;;;;;;15.48;7.70;;;2.30;81.30;;;;;;4980096;28;20911;-63
2021/01/30 07:39:00;;;;;;;10.13;6.60;;;2.30;81.40;;;;;;4977007;28;20035;-64
2021/01/30 07:41:48;;;;;;;13.57;7.28;;;2.40;80.50;;;;;;4966423;28;20038;-64
2021/01/30 07:44:26;;;;;;;12.65;6.35;;;2.30;80.80;;;;;;4979125;28;20030;-63
2021/01/30 07:47:18;;;;;;;13.85;6.72;;;2.40;81.20;;;;;;4979824;28;20030;-63
2021/01/30 07:49:48;;;;;;;14.23;6.90;;;2.40;81.20;;;;;;4980183;28;20050;-63
2021/01/30 07:52:45;;;;;;;11.75;6.43;;;2.40;80.70;;;;;;4979280;28;20069;-65
2021/01/30 07:55:11;;;;;;;11.80;6.50;;;2.50;80.60;;;;;;4979139;28;20654;-63
2021/01/30 07:57:58;;;;;;;11.75;7.30;;;2.50;80.50;;;;;;4980574;28;20030;-63
2021/01/30 08:00:48;;;;;;;11.52;6.30;;;2.60;80.20;;;;;;4975216;28;20042;-63
2021/01/30 08:03:34;;;;;;;9.05;6.03;;;2.70;79.70;;;;;;4980256;28;20084;-63
2021/01/30 08:06:18;;;;;;;12.23;6.30;;;2.70;79.80;;;;;;4980107;28;20726;-63
2021/01/30 08:09:09;;;;;;;11.68;5.85;;;2.70;79.40;;;;;;4979761;28;20308;-63
2021/01/30 08:12:01;;;;;;;10.98;5.50;;;2.70;79.30;;;;;;4976789;28;20114;-63
2021/01/30 08:14:49;;;;;;;11.40;6.43;;;2.70;79.30;;;;;;4980140;28;20069;-63
2021/01/30 08:17:31;;;;;;;12.52;6.95;;;2.70;79.50;;;;;;4978888;28;20670;-62
2021/01/30 08:20:11;;;;;;;11.38;5.68;;;2.70;79.10;;;;;;4979710;28;20038;-62
2021/01/30 08:23:01;;;;;;;8.60;5.63;;;2.70;78.80;;;;;;4979538;28;20402;-63
2021/01/30 08:25:38;;;;;;;8.02;4.82;;;2.70;79.10;;;;;;4978173;28;20030;-63
2021/01/30 08:28:18;;;;;;;9.15;5.47;;;2.70;78.80;;;;;;4974997;28;20026;-60
2021/01/30 08:30:44;;;;;;;10.57;5.57;;;2.80;78.90;;;;;;4975257;28;20105;-60
2021/01/30 08:33:10;;;;;;;13.90;5.30;;;2.90;78.70;;;;;;4969710;28;20049;-60
2021/01/30 08:35:46;;;;;;;7.63;5.22;;;3.00;78.50;;;;;;4978836;28;20105;-60
2021/01/30 08:38:17;;;;;;;10.50;5.30;;;3.10;78.40;;;;;;4978716;28;20060;-60
2021/01/30 08:40:53;;;;;;;8.88;5.20;;;3.20;78.70;;;;;;4978727;28;20165;-62
2021/01/30 08:43:42;;;;;;;8.88;5.10;;;3.30;77.70;;;;;;4971802;28;20041;-60
2021/01/30 08:46:37;;;;;;;9.10;5.43;;;3.40;77.50;;;;;;4971196;28;20097;-60
2021/01/30 08:49:15;;;;;;;11.32;6.07;;;3.50;76.70;;;;;;4974831;28;20681;-60
2021/01/30 08:51:41;;;;;;;11.35;6.25;;;3.60;76.30;;;;;;4978646;28;20089;-60
2021/01/30 08:54:32;;;;;;;10.13;6.00;;;3.70;75.40;;;;;;4978069;28;20113;-60
2021/01/30 08:56:59;;;;;;;13.85;7.90;;;3.70;75.80;;;;;;4978684;28;20517;-61
2021/01/30 08:59:48;;;;;;;17.08;11.23;;;3.70;75.50;;;;;;4978427;28;20602;-60
2021/01/30 09:02:26;;;;;;;11.95;7.60;;;3.70;75.60;;;;;;4971620;28;20552;-60
2021/01/30 09:05:04;;;;;;;16.73;10.32;;;3.70;75.30;;;;;;4977234;28;20030;-61
2021/01/30 09:08:07;;;;;;;15.65;7.90;;;3.70;75.00;;;;;;4978261;28;20736;-62
2021/01/30 09:10:38;;;;;;;11.75;7.78;;;3.70;75.50;;;;;;4949455;28;20062;-61
2021/01/30 09:13:14;;;;;;;15.38;8.05;;;3.70;75.70;;;;;;4976942;28;20504;-60
2021/01/30 09:15:40;;;;;;;;;;;3.70;75.00;;;;;;4978107;28;20038;-61
2021/01/30 09:18:26;;;;;;;13.40;7.00;;;3.70;75.80;;;;;;4978771;28;19940;-60
2021/01/30 09:20:57;;;;;;;12.80;6.20;;;3.80;76.10;;;;;;4964563;28;20046;-60
2021/01/30 09:23:29;;;;;;;11.68;6.28;;;3.80;75.70;;;;;;4978279;28;20042;-61
2021/01/30 09:26:07;;;;;;;9.68;5.85;;;4.00;75.70;;;;;;4977646;28;20042;-61
2021/01/30 09:28:33;;;;;;;10.07;6.20;;;4.10;75.20;;;;;;4977794;28;20358;-61
2021/01/30 09:31:03;;;;;;;11.52;7.15;;;4.20;74.10;;;;;;4977706;28;20498;-60
2021/01/30 09:33:34;;;;;;;14.77;8.00;;;4.30;73.50;;;;;;4977702;28;20045;-61
2021/01/30 09:36:36;;;;;;;12.02;6.72;;;4.20;73.50;;;;;;4975869;28;20445;-61
2021/01/30 09:39:03;;;;;;;11.18;6.50;;;4.10;73.90;;;;;;4954349;28;20061;-60
2021/01/30 09:41:34;;;;;;;11.00;6.28;;;4.10;74.20;;;;;;4978066;28;20062;-61
2021/01/30 09:44:21;;;;;;;11.77;6.53;;;4.10;74.20;;;;;;4976986;28;20049;-61
2021/01/30 09:46:54;;;;;;;10.45;6.18;;;4.10;74.60;;;;;;4976889;28;20061;-61
2021/01/30 09:49:26;;;;;;;9.98;6.30;;;4.10;74.80;;;;;;4971874;28;20034;-61
2021/01/30 09:51:55;;;;;;;9.85;5.78;;;4.10;74.60;;;;;;4976722;28;20109;-60
2021/01/30 09:54:24;;;;;;;13.32;6.13;;;4.00;74.30;;;;;;4976662;28;20034;-61
2021/01/30 09:56:50;;;;;;;10.68;6.35;;;4.00;74.90;;;;;;4977039;28;20052;-60
2021/01/30 09:59:24;;;;;;;11.18;6.20;;;4.00;75.20;;;;;;4976042;28;20034;-61
2021/01/30 10:01:50;;;;;;;9.73;6.07;;;4.00;75.00;;;;;;4975874;28;20038;-60
2021/01/30 10:04:23;;;;;;;10.45;6.15;;;4.00;75.20;;;;;;4971145;28;20081;-60
2021/01/30 10:06:51;;;;;;;13.18;7.28;;;4.10;74.90;;;;;;4976662;28;20125;-62
2021/01/30 10:09:16;;;;;;;10.13;5.35;;;4.10;75.10;;;;;;4977818;28;20042;-64
2021/01/30 10:11:46;;;;;;;18.27;7.07;;;4.20;75.40;;;;;;4977540;28;20040;-60
2021/01/30 10:14:15;;;;;;;13.93;7.20;;;4.30;74.70;;;;;;4977184;28;20398;-60
2021/01/30 10:16:45;;;;;;;9.15;5.55;;;4.40;74.50;;;;;;4976537;28;20061;-60
2021/01/30 10:19:23;;;;;;;13.60;6.70;;;4.40;74.20;;;;;;4976571;28;20057;-61
2021/01/30 10:21:50;;;;;;;15.25;7.20;;;4.50;74.80;;;;;;4975479;28;20038;-61
2021/01/30 10:24:24;;;;;;;16.25;7.78;;;4.60;74.10;;;;;;4975870;28;20042;-61
2021/01/30 10:26:52;;;;;;;13.15;6.18;;;4.60;73.90;;;;;;4975497;28;20045;-61
2021/01/30 10:29:21;;;;;;;19.20;9.15;;;4.60;73.60;;;;;;4975268;28;20093;-61
2021/01/30 10:32:01;;;;;;;16.80;9.00;;;4.60;73.70;;;;;;4975862;28;20042;-61
2021/01/30 10:34:45;;;;;;;17.05;10.50;;;4.50;74.00;;;;;;4967205;28;20034;-61
2021/01/30 10:37:16;;;;;;;9.52;5.90;;;4.60;73.60;;;;;;4975649;28;20038;-62
2021/01/30 10:39:57;;;;;;;15.13;8.50;;;4.70;73.40;;;;;;4976708;28;20030;-60
2021/01/30 10:42:25;;;;;;;10.75;7.10;;;4.80;72.60;;;;;;4975626;28;20056;-61
2021/01/30 10:45:22;;;;;;;8.70;5.15;;;4.80;73.00;;;;;;4973771;28;20513;-65
2021/01/30 10:48:00;;;;;;;14.15;7.07;;;4.90;73.60;;;;;;4974575;28;20243;-61
2021/01/30 10:50:42;;;;;;;14.38;7.05;;;5.00;72.40;;;;;;4976601;28;20426;-61
2021/01/30 10:53:29;;;;;;;10.10;6.65;;;5.00;72.00;;;;;;4976360;28;20054;-60
2021/01/30 10:55:55;;;;;;;10.90;5.35;;;5.10;72.20;;;;;;4976673;28;21023;-64
2021/01/30 10:58:24;;;;;;;8.70;4.68;;;5.10;71.80;;;;;;4977331;28;20034;-61
2021/01/30 11:01:02;;;;;;;9.85;5.05;;;5.20;72.00;;;;;;4977861;28;20483;-61
2021/01/30 11:03:44;;;;;;;10.13;5.57;;;5.30;71.80;;;;;;4973418;28;20043;-61
2021/01/30 11:06:18;;;;;;;9.75;5.05;;;5.40;72.20;;;;;;4976357;28;20034;-61
2021/01/30 11:08:44;;;;;;;6.20;3.70;;;5.50;70.80;;;;;;4977720;28;20078;-61
2021/01/30 11:11:21;;;;;;;11.75;4.38;;;5.50;70.00;;;;;;4977677;28;20034;-61
2021/01/30 11:13:46;;;;;;;;;;;5.50;70.00;;;;;;4976234;28;20041;-65
2021/01/30 11:16:26;;;;;;;14.15;4.93;;;5.40;70.10;;;;;;4977226;28;19914;-61
2021/01/30 11:18:52;;;;;;;9.52;4.50;;;5.50;70.70;;;;;;4975646;28;20069;-61
2021/01/30 11:21:33;;;;;;;10.07;4.53;;;5.50;70.10;;;;;;4976617;28;20117;-61
2021/01/30 11:24:23;;;;;;;10.75;4.82;;;5.50;69.90;;;;;;4976791;28;20040;-61
2021/01/30 11:26:49;;;;;;;5.75;3.72;;;5.50;69.60;;;;;;4976327;28;20031;-60
2021/01/30 11:29:43;;;;;;;5.68;3.47;;;5.40;70.10;;;;;;4976268;28;20042;-61
2021/01/30 11:32:16;;;;;;;8.40;3.50;;;5.40;70.60;;;;;;4976009;28;20026;-64
2021/01/30 11:34:45;;;;;;;6.35;3.50;;;5.40;69.80;;;;;;4969646;28;20482;-64
2021/01/30 11:37:10;;;;;;;13.02;5.50;;;5.40;70.10;;;;;;4976148;28;20816;-65
2021/01/30 11:39:37;;;;;;;10.82;4.00;;;5.40;69.20;;;;;;4976625;28;20034;-72
2021/01/30 11:42:04;;;;;;;6.03;3.50;;;5.40;69.70;;;;;;4973644;28;20046;-61
2021/01/30 11:44:30;;;;;;;12.00;5.18;;;5.20;69.80;;;;;;4976458;28;20050;-68
2021/01/30 11:46:56;;;;;;;14.43;6.65;;;5.20;70.80;;;;;;4976091;28;20034;-67
2021/01/30 11:49:22;;;;;;;7.40;4.57;;;5.20;70.60;;;;;;4976560;28;20085;-72
2021/01/30 11:51:48;;;;;;;6.40;4.40;;;5.10;70.30;;;;;;4975622;28;20117;-64
2021/01/30 11:54:14;;;;;;;16.02;7.40;;;5.00;71.80;;;;;;4973799;28;20062;-61
2021/01/30 11:56:41;;;;;;;6.45;4.65;;;5.00;72.00;;;;;;4972126;28;20030;-61
2021/01/30 11:59:09;;;;;;;6.55;4.28;;;5.10;71.40;;;;;;4973265;28;20581;-61
2021/01/30 12:01:34;;;;;;;5.68;3.65;;;5.30;71.00;;;;;;4973296;28;20078;-61
2021/01/30 12:04:00;;;;;;;10.02;4.68;;;5.30;70.70;;;;;;4977502;28;20184;-68
2021/01/30 12:06:26;;;;;;;6.75;4.32;;;5.30;71.40;;;;;;4977430;28;20148;-61
2021/01/30 12:08:52;;;;;;;7.28;4.25;;;5.30;71.30;;;;;;4978537;28;20643;-61
2021/01/30 12:11:19;;;;;;;5.82;3.97;;;5.20;70.70;;;;;;4978640;28;20040;-61
2021/01/30 12:13:45;;;;;;;7.03;4.20;;;5.00;71.20;;;;;;4978380;28;20042;-61
2021/01/30 12:16:11;;;;;;;6.03;3.95;;;4.90;71.70;;;;;;4978334;28;20430;-61
2021/01/30 12:18:37;;;;;;;4.47;3.05;;;4.70;72.00;;;;;;4978416;28;20092;-61
2021/01/30 12:21:03;;;;;;;10.50;6.25;;;4.70;72.80;;;;;;4977320;28;20038;-61
2021/01/30 12:23:30;;;;;;;7.32;4.15;;;4.60;72.60;;;;;;4978062;28;20038;-72
2021/01/30 12:25:55;;;;;;;8.00;4.43;;;4.50;73.90;;;;;;4977726;28;20195;-66
2021/01/30 12:28:27;;;;;;;5.82;3.72;;;4.50;73.20;;;;;;4967698;28;20034;-61
2021/01/30 12:30:53;;;;;;;6.90;4.03;;;4.40;72.50;;;;;;4978612;28;20053;-61
2021/01/30 12:33:19;;;;;;;6.13;3.88;;;4.30;73.70;;;;;;4978241;28;20244;-62
2021/01/30 12:35:45;;;;;;;5.32;3.63;;;4.30;74.20;;;;;;4976429;28;20124;-61
2021/01/30 12:38:12;;;;;;;9.15;4.35;;;4.40;74.00;;;;;;4977772;28;20053;-61
2021/01/30 12:40:42;;;;;;;7.45;4.50;;;4.40;74.20;;;;;;4978436;28;20549;-62
2021/01/30 12:43:09;;;;;;;5.88;3.92;;;4.40;73.90;;;;;;4977702;28;20038;-61
2021/01/30 12:45:34;;;;;;;6.35;3.78;;;4.50;74.10;;;;;;4978440;28;20145;-61
2021/01/30 12:48:01;;;;;;;6.15;3.70;;;4.60;73.80;;;;;;4976157;28;20048;-62
2021/01/30 12:50:28;;;;;;;5.43;3.53;;;4.80;73.90;;;;;;4977377;28;20041;-61
2021/01/30 12:52:54;;;;;;;7.97;4.78;;;4.90;72.50;;;;;;4977939;28;20526;-61
2021/01/30 12:55:21;;;;;;;7.50;3.35;;;4.80;71.30;;;;;;4977209;28;20153;-61
2021/01/30 12:57:46;;;;;;;8.95;3.80;;;4.70;71.90;;;;;;4977222;28;20060;-61
2021/01/30 13:00:16;;;;;;;6.93;3.95;;;4.60;72.10;;;;;;4977468;28;20043;-61
2021/01/30 13:02:41;;;;;;;6.38;2.88;;;4.50;72.90;;;;;;4978191;28;20160;-62
2021/01/30 13:05:09;;;;;;;5.15;3.35;;;4.50;74.00;;;;;;4976399;28;20863;-62
2021/01/30 13:07:36;;;;;;;5.10;3.55;;;4.50;74.60;;;;;;4977897;28;20105;-62
2021/01/30 13:10:04;;;;;;;7.10;3.58;;;4.60;74.70;;;;;;4976298;28;20045;-62
2021/01/30 13:12:30;;;;;;;3.05;2.55;;;4.70;73.80;;;;;;4977835;28;20039;-62
2021/01/30 13:14:55;;;;;;;5.18;2.83;;;4.90;73.50;;;;;;4977519;28;20062;-61
2021/01/30 13:17:21;;;;;;;5.35;3.72;;;5.00;72.10;;;;;;4977385;28;20034;-61
2021/01/30 13:19:47;;;;;;;7.25;4.00;;;5.10;70.10;;;;;;4977445;28;20038;-62
2021/01/30 13:22:13;;;;;;;6.35;3.20;;;5.00;70.80;;;;;;4969862;28;20867;-64